sensor_id;sensor_type;location;lat;lon;timestamp;P1;durP1;ratioP1;P2;durP2;ratioP2
23129;SDS011;11734;51.046;13.778;2024-02-23T00:00:52;2.83;;;2.63;;
23129;SDS011;11734;51.046;13.778;2024-02-23T00:03:20;2.80;;;2.60;;
23129;SDS011;11734;51.046;13.778;2024-02-23T00:05:47;3.63;;;2.77;;
23129;SDS011;11734;51.046;13.778;2024-02-23T00:08:14;2.50;;;2.33;;
23129;SDS011;11734;51.046;13.778;2024-02-23T00:10:41;3.00;;;2.80;;
23129;SDS011;11734;51.046;13.778;2024-02-23T00:13:09;2.77;;;2.57;;
23129;SDS011;11734;51.046;13.778;2024-02-23T00:15:36;2.90;;;2.70;;
23129;SDS011;11734;51.046;13.778;2024-02-23T00:18:04;2.57;;;2.37;;
23129;SDS011;11734;51.046;13.778;2024-02-23T00:20:32;2.50;;;2.30;;
23129;SDS011;11734;51.046;13.778;2024-02-23T00:22:59;3.30;;;2.63;;
23129;SDS011;11734;51.046;13.778;2024-02-23T00:25:27;2.57;;;2.37;;
23129;SDS011;11734;51.046;13.778;2024-02-23T00:27:54;2.60;;;2.27;;
23129;SDS011;11734;51.046;13.778;2024-02-23T00:30:21;2.43;;;2.23;;
23129;SDS011;11734;51.046;13.778;2024-02-23T00:32:49;3.40;;;2.50;;
23129;SDS011;11734;51.046;13.778;2024-02-23T00:35:16;2.50;;;2.30;;
23129;SDS011;11734;51.046;13.778;2024-02-23T00:37:43;2.60;;;2.30;;
23129;SDS011;11734;51.046;13.778;2024-02-23T00:40:11;2.47;;;2.27;;
23129;SDS011;11734;51.046;13.778;2024-02-23T00:42:39;2.77;;;2.57;;
23129;SDS011;11734;51.046;13.778;2024-02-23T00:45:07;2.40;;;2.20;;
23129;SDS011;11734;51.046;13.778;2024-02-23T00:47:35;2.67;;;2.47;;
23129;SDS011;11734;51.046;13.778;2024-02-23T00:50:03;1.87;;;1.77;;
23129;SDS011;11734;51.046;13.778;2024-02-23T00:52:31;2.47;;;2.27;;
23129;SDS011;11734;51.046;13.778;2024-02-23T00:54:58;1.60;;;1.50;;
23129;SDS011;11734;51.046;13.778;2024-02-23T00:57:26;1.73;;;1.63;;
23129;SDS011;11734;51.046;13.778;2024-02-23T00:59:56;1.00;;;1.00;;
23129;SDS011;11734;51.046;13.778;2024-02-23T01:02:24;1.50;;;1.40;;
23129;SDS011;11734;51.046;13.778;2024-02-23T01:04:51;1.53;;;1.07;;
23129;SDS011;11734;51.046;13.778;2024-02-23T01:07:23;1.13;;;1.03;;
23129;SDS011;11734;51.046;13.778;2024-02-23T01:09:50;0.80;;;0.80;;
23129;SDS011;11734;51.046;13.778;2024-02-23T01:12:17;0.93;;;0.93;;
23129;SDS011;11734;51.046;13.778;2024-02-23T01:14:45;0.80;;;0.80;;
23129;SDS011;11734;51.046;13.778;2024-02-23T01:17:15;0.80;;;0.80;;
23129;SDS011;11734;51.046;13.778;2024-02-23T01:19:42;0.93;;;0.80;;
23129;SDS011;11734;51.046;13.778;2024-02-23T01:22:11;0.83;;;0.83;;
23129;SDS011;11734;51.046;13.778;2024-02-23T01:24:38;1.00;;;1.00;;
23129;SDS011;11734;51.046;13.778;2024-02-23T01:27:06;1.23;;;0.80;;
23129;SDS011;11734;51.046;13.778;2024-02-23T01:29:33;1.23;;;1.13;;
23129;SDS011;11734;51.046;13.778;2024-02-23T01:32:00;1.00;;;1.00;;
23129;SDS011;11734;51.046;13.778;2024-02-23T01:34:28;1.10;;;1.10;;
23129;SDS011;11734;51.046;13.778;2024-02-23T01:36:55;1.00;;;0.90;;
23129;SDS011;11734;51.046;13.778;2024-02-23T01:39:22;0.77;;;0.77;;
23129;SDS011;11734;51.046;13.778;2024-02-23T01:41:50;0.80;;;0.60;;
23129;SDS011;11734;51.046;13.778;2024-02-23T01:44:17;0.70;;;0.70;;
23129;SDS011;11734;51.046;13.778;2024-02-23T01:46:47;1.10;;;1.00;;
23129;SDS011;11734;51.046;13.778;2024-02-23T01:49:14;0.90;;;0.90;;
23129;SDS011;11734;51.046;13.778;2024-02-23T01:51:42;0.83;;;0.83;;
23129;SDS011;11734;51.046;13.778;2024-02-23T01:54:10;0.90;;;0.77;;
23129;SDS011;11734;51.046;13.778;2024-02-23T01:56:37;0.80;;;0.80;;
23129;SDS011;11734;51.046;13.778;2024-02-23T01:59:06;0.80;;;0.80;;
23129;SDS011;11734;51.046;13.778;2024-02-23T02:01:34;0.93;;;0.90;;
23129;SDS011;11734;51.046;13.778;2024-02-23T02:04:02;0.93;;;0.93;;
23129;SDS011;11734;51.046;13.778;2024-02-23T02:06:29;0.70;;;0.70;;
23129;SDS011;11734;51.046;13.778;2024-02-23T02:08:57;2.20;;;0.77;;
23129;SDS011;11734;51.046;13.778;2024-02-23T02:11:24;1.10;;;1.10;;
23129;SDS011;11734;51.046;13.778;2024-02-23T02:13:52;0.87;;;0.87;;
23129;SDS011;11734;51.046;13.778;2024-02-23T02:16:19;1.23;;;1.20;;
23129;SDS011;11734;51.046;13.778;2024-02-23T02:18:46;1.00;;;1.00;;
23129;SDS011;11734;51.046;13.778;2024-02-23T02:21:13;0.87;;;0.83;;
23129;SDS011;11734;51.046;13.778;2024-02-23T02:23:41;1.57;;;1.00;;
23129;SDS011;11734;51.046;13.778;2024-02-23T02:26:08;1.10;;;0.80;;
23129;SDS011;11734;51.046;13.778;2024-02-23T02:28:35;0.80;;;0.80;;
23129;SDS011;11734;51.046;13.778;2024-02-23T02:31:03;1.10;;;0.90;;
23129;SDS011;11734;51.046;13.778;2024-02-23T02:33:30;1.03;;;0.70;;
23129;SDS011;11734;51.046;13.778;2024-02-23T02:35:57;0.80;;;0.80;;
23129;SDS011;11734;51.046;13.778;2024-02-23T02:38:25;1.10;;;0.80;;
23129;SDS011;11734;51.046;13.778;2024-02-23T02:40:52;0.80;;;0.80;;
23129;SDS011;11734;51.046;13.778;2024-02-23T02:43:20;1.00;;;0.97;;
23129;SDS011;11734;51.046;13.778;2024-02-23T02:45:47;1.67;;;0.90;;
23129;SDS011;11734;51.046;13.778;2024-02-23T02:48:15;0.73;;;0.73;;
23129;SDS011;11734;51.046;13.778;2024-02-23T02:50:42;0.80;;;0.80;;
23129;SDS011;11734;51.046;13.778;2024-02-23T02:53:10;0.80;;;0.70;;
23129;SDS011;11734;51.046;13.778;2024-02-23T02:55:41;1.10;;;1.10;;
23129;SDS011;11734;51.046;13.778;2024-02-23T02:58:08;0.80;;;0.80;;
23129;SDS011;11734;51.046;13.778;2024-02-23T03:00:36;1.17;;;0.80;;
23129;SDS011;11734;51.046;13.778;2024-02-23T03:03:03;0.77;;;0.70;;
23129;SDS011;11734;51.046;13.778;2024-02-23T03:05:30;1.00;;;1.00;;
23129;SDS011;11734;51.046;13.778;2024-02-23T03:07:58;1.33;;;1.23;;
23129;SDS011;11734;51.046;13.778;2024-02-23T03:10:25;1.47;;;0.70;;
23129;SDS011;11734;51.046;13.778;2024-02-23T03:12:52;0.80;;;0.60;;
23129;SDS011;11734;51.046;13.778;2024-02-23T03:15:20;0.80;;;0.80;;
23129;SDS011;11734;51.046;13.778;2024-02-23T03:17:47;0.70;;;0.70;;
23129;SDS011;11734;51.046;13.778;2024-02-23T03:20:15;0.77;;;0.70;;
23129;SDS011;11734;51.046;13.778;2024-02-23T03:22:43;0.87;;;0.80;;
23129;SDS011;11734;51.046;13.778;2024-02-23T03:25:10;1.00;;;0.90;;
23129;SDS011;11734;51.046;13.778;2024-02-23T03:27:37;0.97;;;0.60;;
23129;SDS011;11734;51.046;13.778;2024-02-23T03:30:05;1.33;;;0.90;;
23129;SDS011;11734;51.046;13.778;2024-02-23T03:32:34;0.90;;;0.90;;
23129;SDS011;11734;51.046;13.778;2024-02-23T03:35:06;1.43;;;1.07;;
23129;SDS011;11734;51.046;13.778;2024-02-23T03:37:35;0.90;;;0.90;;
23129;SDS011;11734;51.046;13.778;2024-02-23T03:40:02;1.47;;;0.87;;
23129;SDS011;11734;51.046;13.778;2024-02-23T03:42:31;1.07;;;1.07;;
23129;SDS011;11734;51.046;13.778;2024-02-23T03:44:58;1.30;;;0.90;;
23129;SDS011;11734;51.046;13.778;2024-02-23T03:47:25;0.83;;;0.80;;
23129;SDS011;11734;51.046;13.778;2024-02-23T03:49:53;0.50;;;0.50;;
23129;SDS011;11734;51.046;13.778;2024-02-23T03:52:20;0.60;;;0.60;;
23129;SDS011;11734;51.046;13.778;2024-02-23T03:54:48;0.90;;;0.90;;
23129;SDS011;11734;51.046;13.778;2024-02-23T03:57:18;0.73;;;0.73;;
23129;SDS011;11734;51.046;13.778;2024-02-23T03:59:51;1.07;;;1.00;;
23129;SDS011;11734;51.046;13.778;2024-02-23T04:02:19;1.27;;;1.00;;
23129;SDS011;11734;51.046;13.778;2024-02-23T04:04:47;1.30;;;0.93;;
23129;SDS011;11734;51.046;13.778;2024-02-23T04:07:15;1.00;;;0.90;;
23129;SDS011;11734;51.046;13.778;2024-02-23T04:09:42;1.00;;;0.90;;
23129;SDS011;11734;51.046;13.778;2024-02-23T04:12:10;1.40;;;0.83;;
23129;SDS011;11734;51.046;13.778;2024-02-23T04:14:37;0.80;;;0.73;;
23129;SDS011;11734;51.046;13.778;2024-02-23T04:17:07;1.30;;;0.70;;
23129;SDS011;11734;51.046;13.778;2024-02-23T04:19:34;0.70;;;0.70;;
23129;SDS011;11734;51.046;13.778;2024-02-23T04:22:02;0.80;;;0.80;;
23129;SDS011;11734;51.046;13.778;2024-02-23T04:24:29;0.80;;;0.80;;
23129;SDS011;11734;51.046;13.778;2024-02-23T04:26:56;1.03;;;0.80;;
23129;SDS011;11734;51.046;13.778;2024-02-23T04:29:24;2.73;;;0.90;;
23129;SDS011;11734;51.046;13.778;2024-02-23T04:31:51;1.97;;;0.90;;
23129;SDS011;11734;51.046;13.778;2024-02-23T04:34:18;0.83;;;0.83;;
23129;SDS011;11734;51.046;13.778;2024-02-23T04:36:46;0.80;;;0.80;;
23129;SDS011;11734;51.046;13.778;2024-02-23T04:39:13;0.97;;;0.90;;
23129;SDS011;11734;51.046;13.778;2024-02-23T04:41:40;0.93;;;0.93;;
23129;SDS011;11734;51.046;13.778;2024-02-23T04:44:07;0.77;;;0.77;;
23129;SDS011;11734;51.046;13.778;2024-02-23T04:46:35;1.10;;;1.00;;
23129;SDS011;11734;51.046;13.778;2024-02-23T04:49:02;1.60;;;0.60;;
23129;SDS011;11734;51.046;13.778;2024-02-23T04:51:30;1.00;;;0.90;;
23129;SDS011;11734;51.046;13.778;2024-02-23T04:53:57;0.90;;;0.90;;
23129;SDS011;11734;51.046;13.778;2024-02-23T04:56:24;1.90;;;1.00;;
23129;SDS011;11734;51.046;13.778;2024-02-23T04:58:52;2.13;;;0.90;;
23129;SDS011;11734;51.046;13.778;2024-02-23T05:01:19;0.93;;;0.93;;
23129;SDS011;11734;51.046;13.778;2024-02-23T05:03:46;1.27;;;1.17;;
23129;SDS011;11734;51.046;13.778;2024-02-23T05:06:14;1.00;;;1.00;;
23129;SDS011;11734;51.046;13.778;2024-02-23T05:08:41;0.97;;;0.90;;
23129;SDS011;11734;51.046;13.778;2024-02-23T05:11:09;1.00;;;1.00;;
23129;SDS011;11734;51.046;13.778;2024-02-23T05:13:36;1.70;;;0.77;;
23129;SDS011;11734;51.046;13.778;2024-02-23T05:16:05;0.80;;;0.60;;
23129;SDS011;11734;51.046;13.778;2024-02-23T05:18:33;2.20;;;1.00;;
23129;SDS011;11734;51.046;13.778;2024-02-23T05:21:00;2.13;;;1.10;;
23129;SDS011;11734;51.046;13.778;2024-02-23T05:23:28;1.40;;;0.80;;
23129;SDS011;11734;51.046;13.778;2024-02-23T05:25:55;1.00;;;1.00;;
23129;SDS011;11734;51.046;13.778;2024-02-23T05:28:22;2.30;;;1.03;;
23129;SDS011;11734;51.046;13.778;2024-02-23T05:30:49;1.13;;;1.00;;
23129;SDS011;11734;51.046;13.778;2024-02-23T05:33:17;1.87;;;1.17;;
23129;SDS011;11734;51.046;13.778;2024-02-23T05:35:47;1.20;;;0.87;;
23129;SDS011;11734;51.046;13.778;2024-02-23T05:38:18;0.90;;;0.90;;
23129;SDS011;11734;51.046;13.778;2024-02-23T05:40:45;1.57;;;1.10;;
23129;SDS011;11734;51.046;13.778;2024-02-23T05:43:14;1.10;;;1.00;;
23129;SDS011;11734;51.046;13.778;2024-02-23T05:45:41;1.27;;;0.90;;
23129;SDS011;11734;51.046;13.778;2024-02-23T05:48:10;1.50;;;1.03;;
23129;SDS011;11734;51.046;13.778;2024-02-23T05:50:38;1.10;;;1.10;;
23129;SDS011;11734;51.046;13.778;2024-02-23T05:53:05;1.67;;;0.97;;
23129;SDS011;11734;51.046;13.778;2024-02-23T05:55:32;0.90;;;0.90;;
23129;SDS011;11734;51.046;13.778;2024-02-23T05:58:00;1.23;;;0.87;;
23129;SDS011;11734;51.046;13.778;2024-02-23T06:00:27;1.13;;;1.03;;
23129;SDS011;11734;51.046;13.778;2024-02-23T06:02:54;1.10;;;1.00;;
23129;SDS011;11734;51.046;13.778;2024-02-23T06:05:21;3.00;;;1.10;;
23129;SDS011;11734;51.046;13.778;2024-02-23T06:07:53;1.33;;;1.07;;
23129;SDS011;11734;51.046;13.778;2024-02-23T06:10:21;1.07;;;0.97;;
23129;SDS011;11734;51.046;13.778;2024-02-23T06:12:48;1.10;;;1.00;;
23129;SDS011;11734;51.046;13.778;2024-02-23T06:15:18;1.10;;;1.00;;
23129;SDS011;11734;51.046;13.778;2024-02-23T06:17:45;1.03;;;1.00;;
23129;SDS011;11734;51.046;13.778;2024-02-23T06:20:13;2.30;;;1.10;;
23129;SDS011;11734;51.046;13.778;2024-02-23T06:22:40;2.43;;;1.47;;
23129;SDS011;11734;51.046;13.778;2024-02-23T06:25:08;1.10;;;1.00;;
23129;SDS011;11734;51.046;13.778;2024-02-23T06:27:35;1.30;;;1.20;;
23129;SDS011;11734;51.046;13.778;2024-02-23T06:30:03;0.87;;;0.87;;
23129;SDS011;11734;51.046;13.778;2024-02-23T06:32:31;1.10;;;1.00;;
23129;SDS011;11734;51.046;13.778;2024-02-23T06:34:58;1.20;;;1.10;;
23129;SDS011;11734;51.046;13.778;2024-02-23T06:37:26;2.03;;;1.10;;
23129;SDS011;11734;51.046;13.778;2024-02-23T06:39:53;1.20;;;1.10;;
23129;SDS011;11734;51.046;13.778;2024-02-23T06:42:21;1.43;;;1.10;;
23129;SDS011;11734;51.046;13.778;2024-02-23T06:44:49;1.77;;;1.30;;
23129;SDS011;11734;51.046;13.778;2024-02-23T06:47:16;1.43;;;1.00;;
23129;SDS011;11734;51.046;13.778;2024-02-23T06:49:43;1.33;;;1.00;;
23129;SDS011;11734;51.046;13.778;2024-02-23T06:52:11;1.20;;;1.10;;
23129;SDS011;11734;51.046;13.778;2024-02-23T06:54:38;1.20;;;1.10;;
23129;SDS011;11734;51.046;13.778;2024-02-23T06:57:05;1.03;;;1.00;;
23129;SDS011;11734;51.046;13.778;2024-02-23T06:59:33;1.30;;;1.00;;
23129;SDS011;11734;51.046;13.778;2024-02-23T07:02:01;1.60;;;1.00;;
23129;SDS011;11734;51.046;13.778;2024-02-23T07:04:29;1.10;;;1.10;;
23129;SDS011;11734;51.046;13.778;2024-02-23T07:06:56;1.77;;;1.00;;
23129;SDS011;11734;51.046;13.778;2024-02-23T07:09:23;1.20;;;1.10;;
23129;SDS011;11734;51.046;13.778;2024-02-23T07:11:50;1.43;;;1.33;;
23129;SDS011;11734;51.046;13.778;2024-02-23T07:14:18;1.37;;;0.80;;
23129;SDS011;11734;51.046;13.778;2024-02-23T07:16:48;1.50;;;0.90;;
23129;SDS011;11734;51.046;13.778;2024-02-23T07:19:15;1.23;;;1.10;;
23129;SDS011;11734;51.046;13.778;2024-02-23T07:21:43;1.63;;;0.93;;
23129;SDS011;11734;51.046;13.778;2024-02-23T07:24:10;1.83;;;1.10;;
23129;SDS011;11734;51.046;13.778;2024-02-23T07:26:37;1.03;;;0.93;;
23129;SDS011;11734;51.046;13.778;2024-02-23T07:29:05;1.50;;;1.40;;
23129;SDS011;11734;51.046;13.778;2024-02-23T07:31:33;2.37;;;1.20;;
23129;SDS011;11734;51.046;13.778;2024-02-23T07:34:00;1.43;;;1.03;;
23129;SDS011;11734;51.046;13.778;2024-02-23T07:36:27;0.70;;;0.70;;
23129;SDS011;11734;51.046;13.778;2024-02-23T07:38:55;2.40;;;1.10;;
23129;SDS011;11734;51.046;13.778;2024-02-23T07:41:22;1.63;;;1.10;;
23129;SDS011;11734;51.046;13.778;2024-02-23T07:43:50;1.10;;;0.93;;
23129;SDS011;11734;51.046;13.778;2024-02-23T07:46:17;0.90;;;0.90;;
23129;SDS011;11734;51.046;13.778;2024-02-23T07:48:45;1.30;;;1.20;;
23129;SDS011;11734;51.046;13.778;2024-02-23T07:51:14;1.50;;;1.10;;
23129;SDS011;11734;51.046;13.778;2024-02-23T07:53:42;1.50;;;0.93;;
23129;SDS011;11734;51.046;13.778;2024-02-23T07:56:09;3.57;;;1.77;;
23129;SDS011;11734;51.046;13.778;2024-02-23T07:58:36;1.33;;;1.23;;
23129;SDS011;11734;51.046;13.778;2024-02-23T08:01:04;1.30;;;0.80;;
23129;SDS011;11734;51.046;13.778;2024-02-23T08:03:31;1.07;;;0.97;;
23129;SDS011;11734;51.046;13.778;2024-02-23T08:05:58;1.20;;;1.10;;
23129;SDS011;11734;51.046;13.778;2024-02-23T08:08:29;1.00;;;1.00;;
23129;SDS011;11734;51.046;13.778;2024-02-23T08:10:59;1.93;;;1.00;;
23129;SDS011;11734;51.046;13.778;2024-02-23T08:13:26;1.60;;;1.10;;
23129;SDS011;11734;51.046;13.778;2024-02-23T08:15:54;2.97;;;1.00;;
23129;SDS011;11734;51.046;13.778;2024-02-23T08:18:21;1.03;;;0.90;;
23129;SDS011;11734;51.046;13.778;2024-02-23T08:20:51;1.57;;;0.90;;
23129;SDS011;11734;51.046;13.778;2024-02-23T08:23:19;1.10;;;1.00;;
23129;SDS011;11734;51.046;13.778;2024-02-23T08:25:47;0.63;;;0.63;;
23129;SDS011;11734;51.046;13.778;2024-02-23T08:28:14;1.47;;;1.20;;
23129;SDS011;11734;51.046;13.778;2024-02-23T08:30:41;1.43;;;1.03;;
23129;SDS011;11734;51.046;13.778;2024-02-23T08:33:08;2.13;;;1.00;;
23129;SDS011;11734;51.046;13.778;2024-02-23T08:35:36;1.17;;;0.90;;
23129;SDS011;11734;51.046;13.778;2024-02-23T08:38:04;2.17;;;1.10;;
23129;SDS011;11734;51.046;13.778;2024-02-23T08:40:31;1.20;;;1.10;;
23129;SDS011;11734;51.046;13.778;2024-02-23T08:42:59;2.20;;;0.90;;
23129;SDS011;11734;51.046;13.778;2024-02-23T08:45:26;1.63;;;1.03;;
23129;SDS011;11734;51.046;13.778;2024-02-23T08:47:54;2.20;;;1.03;;
23129;SDS011;11734;51.046;13.778;2024-02-23T08:50:21;1.53;;;1.10;;
23129;SDS011;11734;51.046;13.778;2024-02-23T08:52:48;1.27;;;1.17;;
23129;SDS011;11734;51.046;13.778;2024-02-23T08:55:16;0.90;;;0.90;;
23129;SDS011;11734;51.046;13.778;2024-02-23T08:57:44;1.20;;;1.10;;
23129;SDS011;11734;51.046;13.778;2024-02-23T09:00:11;1.37;;;1.10;;
23129;SDS011;11734;51.046;13.778;2024-02-23T09:02:43;1.90;;;1.20;;
23129;SDS011;11734;51.046;13.778;2024-02-23T09:05:11;1.07;;;0.90;;
23129;SDS011;11734;51.046;13.778;2024-02-23T09:07:38;1.37;;;0.93;;
23129;SDS011;11734;51.046;13.778;2024-02-23T09:10:06;1.30;;;1.20;;
23129;SDS011;11734;51.046;13.778;2024-02-23T09:12:33;1.07;;;1.00;;
23129;SDS011;11734;51.046;13.778;2024-02-23T09:15:01;1.53;;;1.20;;
23129;SDS011;11734;51.046;13.778;2024-02-23T09:17:29;1.50;;;1.13;;
23129;SDS011;11734;51.046;13.778;2024-02-23T09:19:56;1.00;;;1.00;;
23129;SDS011;11734;51.046;13.778;2024-02-23T09:22:23;1.07;;;1.07;;
23129;SDS011;11734;51.046;13.778;2024-02-23T09:24:51;1.10;;;1.00;;
23129;SDS011;11734;51.046;13.778;2024-02-23T09:27:20;2.77;;;1.00;;
23129;SDS011;11734;51.046;13.778;2024-02-23T09:29:47;2.37;;;1.20;;
23129;SDS011;11734;51.046;13.778;2024-02-23T09:32:15;2.50;;;1.50;;
23129;SDS011;11734;51.046;13.778;2024-02-23T09:34:42;1.20;;;1.10;;
23129;SDS011;11734;51.046;13.778;2024-02-23T09:37:10;1.87;;;1.07;;
23129;SDS011;11734;51.046;13.778;2024-02-23T09:39:37;1.20;;;1.10;;
23129;SDS011;11734;51.046;13.778;2024-02-23T09:42:06;1.30;;;0.90;;
23129;SDS011;11734;51.046;13.778;2024-02-23T09:44:36;2.90;;;1.70;;
23129;SDS011;11734;51.046;13.778;2024-02-23T09:47:04;1.57;;;1.47;;
23129;SDS011;11734;51.046;13.778;2024-02-23T09:49:40;3.43;;;1.23;;
23129;SDS011;11734;51.046;13.778;2024-02-23T09:52:07;1.53;;;1.40;;
23129;SDS011;11734;51.046;13.778;2024-02-23T09:54:38;1.97;;;1.77;;
23129;SDS011;11734;51.046;13.778;2024-02-23T09:57:06;2.37;;;1.63;;
23129;SDS011;11734;51.046;13.778;2024-02-23T09:59:34;2.37;;;2.13;;
23129;SDS011;11734;51.046;13.778;2024-02-23T10:02:14;1.60;;;1.43;;
23129;SDS011;11734;51.046;13.778;2024-02-23T10:04:42;1.30;;;1.17;;
23129;SDS011;11734;51.046;13.778;2024-02-23T10:07:10;1.33;;;0.87;;
23129;SDS011;11734;51.046;13.778;2024-02-23T10:09:37;2.77;;;1.30;;
23129;SDS011;11734;51.046;13.778;2024-02-23T10:12:05;2.73;;;1.10;;
23129;SDS011;11734;51.046;13.778;2024-02-23T10:14:33;1.93;;;1.20;;
23129;SDS011;11734;51.046;13.778;2024-02-23T10:17:00;1.00;;;0.83;;
23129;SDS011;11734;51.046;13.778;2024-02-23T10:19:28;1.07;;;1.00;;
23129;SDS011;11734;51.046;13.778;2024-02-23T10:21:56;1.53;;;1.00;;
23129;SDS011;11734;51.046;13.778;2024-02-23T10:24:24;0.90;;;0.80;;
23129;SDS011;11734;51.046;13.778;2024-02-23T10:26:52;0.90;;;0.90;;
23129;SDS011;11734;51.046;13.778;2024-02-23T10:29:19;2.30;;;1.40;;
23129;SDS011;11734;51.046;13.778;2024-02-23T10:31:48;2.03;;;1.00;;
23129;SDS011;11734;51.046;13.778;2024-02-23T10:34:19;1.40;;;1.00;;
23129;SDS011;11734;51.046;13.778;2024-02-23T10:36:47;2.70;;;1.13;;
23129;SDS011;11734;51.046;13.778;2024-02-23T10:39:17;1.33;;;1.13;;
23129;SDS011;11734;51.046;13.778;2024-02-23T10:41:56;1.37;;;0.90;;
23129;SDS011;11734;51.046;13.778;2024-02-23T10:44:27;2.10;;;1.27;;
23129;SDS011;11734;51.046;13.778;2024-02-23T10:46:56;1.67;;;1.20;;
23129;SDS011;11734;51.046;13.778;2024-02-23T10:49:26;3.23;;;1.20;;
23129;SDS011;11734;51.046;13.778;2024-02-23T10:51:54;0.80;;;0.80;;
23129;SDS011;11734;51.046;13.778;2024-02-23T10:54:22;2.37;;;1.20;;
23129;SDS011;11734;51.046;13.778;2024-02-23T10:56:50;2.70;;;1.47;;
23129;SDS011;11734;51.046;13.778;2024-02-23T10:59:18;2.23;;;1.43;;
23129;SDS011;11734;51.046;13.778;2024-02-23T11:01:46;2.37;;;1.20;;
23129;SDS011;11734;51.046;13.778;2024-02-23T11:04:21;1.17;;;1.03;;
23129;SDS011;11734;51.046;13.778;2024-02-23T11:06:52;1.17;;;0.80;;
23129;SDS011;11734;51.046;13.778;2024-02-23T11:09:21;1.33;;;1.00;;
23129;SDS011;11734;51.046;13.778;2024-02-23T11:11:56;1.00;;;0.90;;
23129;SDS011;11734;51.046;13.778;2024-02-23T11:16:59;1.00;;;0.90;;
23129;SDS011;11734;51.046;13.778;2024-02-23T11:22:01;1.53;;;1.10;;
23129;SDS011;11734;51.046;13.778;2024-02-23T11:24:29;1.50;;;0.90;;
23129;SDS011;11734;51.046;13.778;2024-02-23T11:27:00;1.37;;;1.27;;
23129;SDS011;11734;51.046;13.778;2024-02-23T11:29:34;1.17;;;0.83;;
23129;SDS011;11734;51.046;13.778;2024-02-23T11:32:15;1.07;;;1.03;;
23129;SDS011;11734;51.046;13.778;2024-02-23T11:34:56;1.70;;;1.13;;
23129;SDS011;11734;51.046;13.778;2024-02-23T11:37:28;1.73;;;0.90;;
23129;SDS011;11734;51.046;13.778;2024-02-23T11:40:00;1.90;;;1.17;;
23129;SDS011;11734;51.046;13.778;2024-02-23T11:42:29;1.00;;;0.90;;
23129;SDS011;11734;51.046;13.778;2024-02-23T11:44:57;1.20;;;1.07;;
23129;SDS011;11734;51.046;13.778;2024-02-23T11:47:25;1.20;;;1.10;;
23129;SDS011;11734;51.046;13.778;2024-02-23T11:49:52;1.33;;;1.20;;
23129;SDS011;11734;51.046;13.778;2024-02-23T11:52:20;1.73;;;1.00;;
23129;SDS011;11734;51.046;13.778;2024-02-23T11:54:48;1.13;;;1.13;;
23129;SDS011;11734;51.046;13.778;2024-02-23T11:57:15;0.93;;;0.90;;
23129;SDS011;11734;51.046;13.778;2024-02-23T11:59:43;1.60;;;1.40;;
23129;SDS011;11734;51.046;13.778;2024-02-23T12:02:12;1.20;;;1.03;;
23129;SDS011;11734;51.046;13.778;2024-02-23T12:04:39;1.33;;;1.00;;
23129;SDS011;11734;51.046;13.778;2024-02-23T12:07:07;2.83;;;1.03;;
23129;SDS011;11734;51.046;13.778;2024-02-23T12:09:35;1.00;;;0.83;;
23129;SDS011;11734;51.046;13.778;2024-02-23T12:12:02;3.03;;;1.10;;
23129;SDS011;11734;51.046;13.778;2024-02-23T12:14:30;1.97;;;1.17;;
23129;SDS011;11734;51.046;13.778;2024-02-23T12:16:57;1.40;;;1.23;;
23129;SDS011;11734;51.046;13.778;2024-02-23T12:19:25;2.13;;;1.10;;
23129;SDS011;11734;51.046;13.778;2024-02-23T12:21:52;1.60;;;0.93;;
23129;SDS011;11734;51.046;13.778;2024-02-23T12:24:20;1.37;;;0.90;;
23129;SDS011;11734;51.046;13.778;2024-02-23T12:26:52;1.57;;;1.00;;
23129;SDS011;11734;51.046;13.778;2024-02-23T12:29:20;1.53;;;1.13;;
23129;SDS011;11734;51.046;13.778;2024-02-23T12:31:47;2.80;;;1.13;;
23129;SDS011;11734;51.046;13.778;2024-02-23T12:34:14;1.33;;;1.10;;
23129;SDS011;11734;51.046;13.778;2024-02-23T12:36:42;1.10;;;1.00;;
23129;SDS011;11734;51.046;13.778;2024-02-23T12:39:09;2.40;;;1.10;;
23129;SDS011;11734;51.046;13.778;2024-02-23T12:41:37;1.23;;;0.90;;
23129;SDS011;11734;51.046;13.778;2024-02-23T12:44:04;1.30;;;0.80;;
23129;SDS011;11734;51.046;13.778;2024-02-23T12:46:32;0.70;;;0.70;;
23129;SDS011;11734;51.046;13.778;2024-02-23T12:49:00;2.37;;;0.90;;
23129;SDS011;11734;51.046;13.778;2024-02-23T12:51:27;0.93;;;0.90;;
23129;SDS011;11734;51.046;13.778;2024-02-23T12:53:54;1.53;;;0.90;;
23129;SDS011;11734;51.046;13.778;2024-02-23T12:56:21;1.33;;;1.00;;
23129;SDS011;11734;51.046;13.778;2024-02-23T12:58:49;1.93;;;0.73;;
23129;SDS011;11734;51.046;13.778;2024-02-23T13:01:16;1.50;;;0.93;;
23129;SDS011;11734;51.046;13.778;2024-02-23T13:03:43;1.20;;;0.83;;
23129;SDS011;11734;51.046;13.778;2024-02-23T13:06:11;1.63;;;1.00;;
23129;SDS011;11734;51.046;13.778;2024-02-23T13:08:39;0.83;;;0.83;;
23129;SDS011;11734;51.046;13.778;2024-02-23T13:11:08;1.13;;;0.80;;
23129;SDS011;11734;51.046;13.778;2024-02-23T13:13:36;1.27;;;0.97;;
23129;SDS011;11734;51.046;13.778;2024-02-23T13:16:06;1.03;;;0.93;;
23129;SDS011;11734;51.046;13.778;2024-02-23T13:18:34;1.07;;;0.87;;
23129;SDS011;11734;51.046;13.778;2024-02-23T13:21:02;0.63;;;0.63;;
23129;SDS011;11734;51.046;13.778;2024-02-23T13:23:30;1.10;;;1.07;;
23129;SDS011;11734;51.046;13.778;2024-02-23T13:25:57;1.13;;;0.90;;
23129;SDS011;11734;51.046;13.778;2024-02-23T13:28:24;1.27;;;1.10;;
23129;SDS011;11734;51.046;13.778;2024-02-23T13:30:52;0.73;;;0.60;;
23129;SDS011;11734;51.046;13.778;2024-02-23T13:33:19;1.43;;;1.17;;
23129;SDS011;11734;51.046;13.778;2024-02-23T13:35:48;1.07;;;0.97;;
23129;SDS011;11734;51.046;13.778;2024-02-23T13:38:16;2.10;;;1.10;;
23129;SDS011;11734;51.046;13.778;2024-02-23T13:40:43;2.07;;;1.10;;
23129;SDS011;11734;51.046;13.778;2024-02-23T13:43:10;1.77;;;1.10;;
23129;SDS011;11734;51.046;13.778;2024-02-23T13:45:51;2.30;;;1.10;;
23129;SDS011;11734;51.046;13.778;2024-02-23T13:48:19;1.30;;;1.00;;
23129;SDS011;11734;51.046;13.778;2024-02-23T13:50:46;1.83;;;1.20;;
23129;SDS011;11734;51.046;13.778;2024-02-23T13:53:14;1.23;;;0.80;;
23129;SDS011;11734;51.046;13.778;2024-02-23T13:55:41;1.40;;;0.90;;
23129;SDS011;11734;51.046;13.778;2024-02-23T13:58:10;2.53;;;1.10;;
23129;SDS011;11734;51.046;13.778;2024-02-23T14:00:38;1.40;;;1.20;;
23129;SDS011;11734;51.046;13.778;2024-02-23T14:03:06;1.43;;;1.13;;
23129;SDS011;11734;51.046;13.778;2024-02-23T14:05:33;3.50;;;1.50;;
23129;SDS011;11734;51.046;13.778;2024-02-23T14:08:01;2.23;;;1.20;;
23129;SDS011;11734;51.046;13.778;2024-02-23T14:10:33;0.90;;;0.90;;
23129;SDS011;11734;51.046;13.778;2024-02-23T14:13:00;1.67;;;1.20;;
23129;SDS011;11734;51.046;13.778;2024-02-23T14:15:27;1.60;;;1.10;;
23129;SDS011;11734;51.046;13.778;2024-02-23T14:17:55;1.60;;;1.30;;
23129;SDS011;11734;51.046;13.778;2024-02-23T14:20:22;1.23;;;1.13;;
23129;SDS011;11734;51.046;13.778;2024-02-23T14:22:49;1.67;;;1.10;;
23129;SDS011;11734;51.046;13.778;2024-02-23T14:25:18;1.60;;;1.10;;
23129;SDS011;11734;51.046;13.778;2024-02-23T14:27:46;1.43;;;1.33;;
23129;SDS011;11734;51.046;13.778;2024-02-23T14:30:14;1.53;;;1.20;;
23129;SDS011;11734;51.046;13.778;2024-02-23T14:32:41;1.30;;;0.97;;
23129;SDS011;11734;51.046;13.778;2024-02-23T14:35:09;1.50;;;1.10;;
23129;SDS011;11734;51.046;13.778;2024-02-23T14:37:36;2.70;;;1.10;;
23129;SDS011;11734;51.046;13.778;2024-02-23T14:40:04;1.23;;;1.13;;
23129;SDS011;11734;51.046;13.778;2024-02-23T14:42:31;1.33;;;1.17;;